createdAt,value
2022-09-14T00:01:25.173Z,59.23
2022-09-14T00:03:55.097Z,59.23
2022-09-14T00:06:22.249Z,62.90
2022-09-14T00:08:53.136Z,70.83
2022-09-14T00:11:22.103Z,61.93
2022-09-14T00:13:49.604Z,74.63
2022-09-14T00:16:22.776Z,79.63
2022-09-14T00:18:54.502Z,74.57
2022-09-14T00:21:21.981Z,78.80
2022-09-14T00:23:48.943Z,74.47
2022-09-14T00:26:18.072Z,74.43
2022-09-14T00:28:47.635Z,83.97
2022-09-14T00:31:15.078Z,80.27
2022-09-14T00:33:43.398Z,70.60
2022-09-14T00:36:12.219Z,70.20
2022-09-14T00:38:39.610Z,78.07
2022-09-14T00:41:08.223Z,69.63
2022-09-14T00:43:57.569Z,75.83
2022-09-14T00:46:26.326Z,88.60
2022-09-14T00:48:53.808Z,84.17
2022-09-14T00:51:21.584Z,89.20
2022-09-14T00:53:48.918Z,84.43
2022-09-14T00:56:15.808Z,94.10
2022-09-14T00:58:45.939Z,84.43
2022-09-14T01:01:13.195Z,85.43
2022-09-14T01:03:39.910Z,87.07
2022-09-14T01:06:15.903Z,100.93
2022-09-14T01:09:12.533Z,90.57
2022-09-14T01:12:13.624Z,89.00
2022-09-14T01:15:07.884Z,87.60
2022-09-14T01:17:57.094Z,81.47
2022-09-14T01:20:25.847Z,94.40
2022-09-14T01:23:03.676Z,84.77
2022-09-14T01:26:08.200Z,83.83
2022-09-14T01:28:51.724Z,81.23
2022-09-14T01:31:43.361Z,91.50
2022-09-14T01:34:21.923Z,82.40
2022-09-14T01:36:55.517Z,81.53
2022-09-14T01:39:22.705Z,85.33
2022-09-14T01:41:52.368Z,82.53
2022-09-14T01:44:27.315Z,91.53
2022-09-14T01:46:57.640Z,86.13
2022-09-14T01:49:32.148Z,94.97
2022-09-14T01:52:04.273Z,94.87
2022-09-14T01:54:36.833Z,98.57
2022-09-14T01:57:16.388Z,92.97
2022-09-14T01:59:45.753Z,93.83
2022-09-14T02:02:39.291Z,93.77
2022-09-14T02:05:18.338Z,85.97
2022-09-14T02:07:45.068Z,101.17
2022-09-14T02:10:14.868Z,82.13
2022-09-14T02:12:42.024Z,89.77
2022-09-14T02:15:11.026Z,97.37
2022-09-14T02:17:38.045Z,93.57
2022-09-14T02:20:08.167Z,84.40
2022-09-14T02:22:35.507Z,87.30
2022-09-14T02:25:02.524Z,83.47
2022-09-14T02:27:29.113Z,63.27
2022-09-14T02:29:55.960Z,56.90
2022-09-14T02:32:38.816Z,59.50
2022-09-14T02:35:38.034Z,49.67
2022-09-14T02:38:08.413Z,41.73
2022-09-14T02:40:37.340Z,37.73
2022-09-14T02:43:18.870Z,30.37
2022-09-14T02:45:51.660Z,30.33
2022-09-14T02:48:43.186Z,24.37
2022-09-14T02:51:31.088Z,20.17
2022-09-14T02:54:20.552Z,21.83
2022-09-14T02:56:47.320Z,21.87
2022-09-14T02:59:13.959Z,14.00
2022-09-14T03:01:40.611Z,14.63
2022-09-14T03:04:07.437Z,14.17
2022-09-14T03:06:34.028Z,16.00
2022-09-14T03:09:00.851Z,13.40
2022-09-14T03:11:27.489Z,11.27
2022-09-14T03:13:54.056Z,11.90
2022-09-14T03:16:21.689Z,12.23
2022-09-14T03:18:48.290Z,11.87
2022-09-14T03:21:16.540Z,14.17
2022-09-14T03:23:46.107Z,13.30
2022-09-14T03:26:21.245Z,14.37
2022-09-14T03:28:52.745Z,14.80
2022-09-14T03:31:20.035Z,13.83
2022-09-14T03:33:46.959Z,15.50
2022-09-14T03:36:16.165Z,15.17
2022-09-14T03:38:48.132Z,18.90
2022-09-14T03:41:15.161Z,18.80
2022-09-14T03:43:43.433Z,17.77
2022-09-14T03:46:17.711Z,22.97
2022-09-14T03:48:44.693Z,20.30
2022-09-14T03:51:12.945Z,20.27
2022-09-14T03:53:40.680Z,16.10
2022-09-14T03:56:12.639Z,19.10
2022-09-14T03:58:39.487Z,17.57
2022-09-14T04:01:11.938Z,18.00
2022-09-14T04:03:38.727Z,19.40
2022-09-14T04:06:05.825Z,18.33
2022-09-14T04:08:37.381Z,22.90
2022-09-14T04:11:24.093Z,21.17
2022-09-14T04:13:51.563Z,20.87
2022-09-14T04:16:20.841Z,23.23
2022-09-14T04:18:48.268Z,20.77
2022-09-14T04:21:17.572Z,26.97
2022-09-14T04:24:13.386Z,30.00
2022-09-14T04:26:32.137Z,30.17
2022-09-14T04:28:59.342Z,27.90
2022-09-14T04:31:26.348Z,25.43
2022-09-14T04:33:56.081Z,24.33
2022-09-14T04:36:28.040Z,23.40
2022-09-14T04:38:55.940Z,24.40
2022-09-14T04:41:22.914Z,26.17
2022-09-14T04:43:51.003Z,24.97
2022-09-14T04:46:23.516Z,24.20
2022-09-14T04:48:50.549Z,28.00
2022-09-14T04:51:22.731Z,25.13
2022-09-14T04:53:51.749Z,25.37
2022-09-14T04:56:20.157Z,25.33
2022-09-14T04:58:51.617Z,27.10
2022-09-14T05:01:24.642Z,26.27
2022-09-14T05:03:53.019Z,26.77
2022-09-14T05:06:22.364Z,29.73
2022-09-14T05:08:49.762Z,26.10
2022-09-14T05:11:19.616Z,25.90
2022-09-14T05:13:49.801Z,23.40
2022-09-14T05:16:19.979Z,22.43
2022-09-14T05:18:47.079Z,23.70
2022-09-14T05:21:16.411Z,26.50
2022-09-14T05:23:43.481Z,22.80
2022-09-14T05:26:10.477Z,26.70
2022-09-14T05:28:37.389Z,24.03
2022-09-14T05:31:06.027Z,21.87
2022-09-14T05:33:33.453Z,18.13
2022-09-14T05:36:01.845Z,18.87
2022-09-14T05:38:30.419Z,18.60
2022-09-14T05:40:57.127Z,20.30
2022-09-14T05:43:24.437Z,19.73
2022-09-14T05:45:51.495Z,23.73
2022-09-14T05:48:18.491Z,26.83
2022-09-14T05:50:45.173Z,23.90
2022-09-14T05:53:11.928Z,29.70
2022-09-14T05:55:38.548Z,24.37
2022-09-14T05:58:05.763Z,26.17
2022-09-14T06:00:32.351Z,22.50
2022-09-14T06:02:58.932Z,21.77
2022-09-14T06:05:25.603Z,26.97
2022-09-14T06:07:53.195Z,24.50
2022-09-14T06:10:20.968Z,26.60
2022-09-14T06:12:50.254Z,28.50
2022-09-14T06:15:18.939Z,22.57
2022-09-14T06:17:45.514Z,23.60
2022-09-14T06:20:12.121Z,21.13
2022-09-14T06:22:38.699Z,22.80
2022-09-14T06:25:05.700Z,22.00
2022-09-14T06:27:32.330Z,23.70
2022-09-14T06:29:58.904Z,14.60
2022-09-14T06:32:27.157Z,12.80
2022-09-14T06:34:53.730Z,11.20
2022-09-14T06:37:20.318Z,9.90
2022-09-14T06:39:46.987Z,12.63
2022-09-14T06:42:13.621Z,10.80
2022-09-14T06:44:40.204Z,7.60
2022-09-14T06:47:07.219Z,9.90
2022-09-14T06:49:33.853Z,11.00
2022-09-14T06:52:00.814Z,10.17
2022-09-14T06:54:27.539Z,8.83
2022-09-14T06:56:54.886Z,10.83
2022-09-14T06:59:21.640Z,9.27
2022-09-14T07:01:51.202Z,13.43
2022-09-14T07:04:18.594Z,9.57
2022-09-14T07:06:47.307Z,10.70
2022-09-14T07:09:15.158Z,10.10
2022-09-14T07:11:42.573Z,10.43
2022-09-14T07:14:10.143Z,13.13
2022-09-14T07:16:38.156Z,9.93
2022-09-14T07:19:07.655Z,10.47
2022-09-14T07:21:34.814Z,11.47
2022-09-14T07:24:02.035Z,10.90
2022-09-14T07:26:31.749Z,14.13
2022-09-14T07:29:04.224Z,9.00
2022-09-14T07:31:34.685Z,8.47
2022-09-14T07:34:03.656Z,8.03
2022-09-14T07:36:34.825Z,8.70
2022-09-14T07:39:05.003Z,8.20
2022-09-14T07:41:34.008Z,5.40
2022-09-14T07:44:02.564Z,5.60
2022-09-14T07:46:33.020Z,4.07
2022-09-14T07:49:01.584Z,4.40
2022-09-14T07:51:29.239Z,3.90
2022-09-14T07:53:56.084Z,3.80
2022-09-14T07:56:25.201Z,4.80
2022-09-14T07:59:11.644Z,4.67
2022-09-14T08:01:43.709Z,5.30
2022-09-14T08:04:10.319Z,5.87
2022-09-14T08:06:37.214Z,5.93
2022-09-14T08:09:07.551Z,5.93
2022-09-14T08:11:35.113Z,5.80
2022-09-14T08:14:04.875Z,8.70
2022-09-14T08:16:34.482Z,7.03
2022-09-14T08:19:03.558Z,7.33
2022-09-14T08:21:32.046Z,6.17
2022-09-14T08:24:01.300Z,6.03
2022-09-14T08:26:28.436Z,7.40
2022-09-14T08:28:55.852Z,7.63
2022-09-14T08:31:27.146Z,7.10
2022-09-14T08:33:58.806Z,8.90
2022-09-14T08:36:27.928Z,7.90
2022-09-14T08:38:54.511Z,7.93
2022-09-14T08:41:54.756Z,9.17
2022-09-14T08:44:40.421Z,9.20
2022-09-14T08:47:15.466Z,7.90
2022-09-14T08:49:57.621Z,4.53
2022-09-14T08:52:33.935Z,8.07
2022-09-14T08:55:09.653Z,7.40
2022-09-14T08:57:50.440Z,9.33
2022-09-14T09:00:21.963Z,8.53
2022-09-14T09:03:04.056Z,9.20
2022-09-14T09:05:59.958Z,6.53
2022-09-14T09:08:49.827Z,7.70
2022-09-14T09:11:22.207Z,9.50
2022-09-14T09:13:51.808Z,7.23
2022-09-14T09:16:22.948Z,6.77
2022-09-14T09:19:02.787Z,7.60
2022-09-14T09:21:35.629Z,8.73
2022-09-14T09:24:16.696Z,7.10
2022-09-14T09:26:43.463Z,6.50
2022-09-14T09:29:11.181Z,7.73
2022-09-14T09:31:58.862Z,7.57
2022-09-14T09:34:43.753Z,8.60
2022-09-14T09:37:21.632Z,5.47
2022-09-14T09:39:49.377Z,7.30
2022-09-14T09:42:23.216Z,7.70
2022-09-14T09:45:02.569Z,12.73
2022-09-14T09:47:39.348Z,6.57
2022-09-14T09:50:18.494Z,7.50
2022-09-14T09:52:54.484Z,6.37
2022-09-14T09:55:31.282Z,7.23
2022-09-14T09:58:17.959Z,6.57
2022-09-14T10:00:56.884Z,6.50
2022-09-14T10:03:36.912Z,6.47
2022-09-14T10:06:12.414Z,6.23
2022-09-14T10:08:44.575Z,6.03
2022-09-14T10:11:27.867Z,7.37
2022-09-14T10:13:54.484Z,6.40
2022-09-14T10:16:21.288Z,8.90
2022-09-14T10:18:50.343Z,8.60
2022-09-14T10:21:19.087Z,6.10
2022-09-14T10:23:45.794Z,5.80
2022-09-14T10:26:12.348Z,5.20
2022-09-14T10:28:41.603Z,5.47
2022-09-14T10:31:20.276Z,5.57
2022-09-14T10:33:52.040Z,5.10
2022-09-14T10:36:32.459Z,5.57
2022-09-14T10:39:26.244Z,5.23
2022-09-14T10:42:11.984Z,4.97
2022-09-14T10:44:48.775Z,4.20
2022-09-14T10:47:48.839Z,5.20
2022-09-14T10:50:41.150Z,5.40
2022-09-14T10:53:45.421Z,4.53
2022-09-14T10:56:33.576Z,5.70
2022-09-14T10:59:22.588Z,5.53
2022-09-14T11:02:04.594Z,5.07
2022-09-14T11:05:07.797Z,5.80
2022-09-14T11:07:49.328Z,5.67
2022-09-14T11:10:25.505Z,3.50
2022-09-14T11:13:36.564Z,3.73
2022-09-14T11:16:24.312Z,3.60
2022-09-14T11:19:03.223Z,3.47
2022-09-14T11:21:32.848Z,4.20
2022-09-14T11:24:25.146Z,3.33
2022-09-14T11:27:01.553Z,3.40
2022-09-14T11:29:44.434Z,3.60
2022-09-14T11:32:20.848Z,4.60
2022-09-14T11:34:57.730Z,3.20
2022-09-14T11:37:35.520Z,4.27
2022-09-14T11:40:15.951Z,3.60
2022-09-14T11:43:08.905Z,4.27
2022-09-14T11:45:47.271Z,5.10
2022-09-14T11:51:13.455Z,4.37
2022-09-14T11:53:42.706Z,3.97
2022-09-14T11:56:30.525Z,5.30
2022-09-14T11:59:04.157Z,5.17
2022-09-14T12:01:37.048Z,4.77
2022-09-14T12:04:11.590Z,3.63
2022-09-14T12:06:38.167Z,4.00
2022-09-14T12:09:24.358Z,4.80
2022-09-14T12:11:56.534Z,4.07
2022-09-14T12:14:29.536Z,3.13
2022-09-14T12:17:38.482Z,3.40
2022-09-14T12:20:37.850Z,3.80
2022-09-14T12:23:24.740Z,4.13
2022-09-14T12:26:03.621Z,3.40
2022-09-14T12:28:37.133Z,2.80
2022-09-14T12:31:03.922Z,2.80
2022-09-14T12:33:33.804Z,3.40
2022-09-14T12:36:01.816Z,2.90
2022-09-14T12:38:31.432Z,2.77
2022-09-14T12:40:59.685Z,2.30
2022-09-14T12:43:35.408Z,2.57
2022-09-14T12:46:21.512Z,2.47
2022-09-14T12:48:48.244Z,2.40
2022-09-14T12:51:28.315Z,1.80
2022-09-14T12:54:19.527Z,1.90
2022-09-14T12:56:58.047Z,2.20
2022-09-14T12:59:30.535Z,2.23
2022-09-14T13:02:03.030Z,2.77
2022-09-14T13:04:34.706Z,2.40
2022-09-14T13:07:05.801Z,2.50
2022-09-14T13:09:33.673Z,2.57
2022-09-14T13:12:09.059Z,2.97
2022-09-14T13:14:51.808Z,4.03
2022-09-14T13:17:18.925Z,2.93
2022-09-14T13:20:03.594Z,3.13
2022-09-14T13:22:32.477Z,3.17
2022-09-14T13:25:01.386Z,2.87
2022-09-14T13:27:31.232Z,3.47
2022-09-14T13:30:05.936Z,2.90
2022-09-14T13:32:35.560Z,3.87
2022-09-14T13:35:05.758Z,2.93
2022-09-14T13:37:32.567Z,2.43
2022-09-14T13:39:59.863Z,3.00
2022-09-14T13:42:27.236Z,2.57
2022-09-14T13:44:54.029Z,2.30
2022-09-14T13:47:23.587Z,2.80
2022-09-14T13:49:52.671Z,2.37
2022-09-14T13:52:22.254Z,2.80
2022-09-14T13:54:50.253Z,2.50
2022-09-14T13:57:24.830Z,2.50
2022-09-14T14:00:20.828Z,2.40
2022-09-14T14:02:53.311Z,2.23
2022-09-14T14:05:39.624Z,1.90
2022-09-14T14:08:28.264Z,2.30
2022-09-14T14:10:56.197Z,2.03
2022-09-14T14:13:34.094Z,1.57
2022-09-14T14:16:15.969Z,1.60
2022-09-14T14:18:49.317Z,2.20
2022-09-14T14:21:21.476Z,2.73
2022-09-14T14:24:11.758Z,2.27
2022-09-14T14:26:35.803Z,1.87
2022-09-14T14:29:09.619Z,2.60
2022-09-14T14:31:36.326Z,2.50
2022-09-14T14:34:31.304Z,2.90
2022-09-14T14:36:57.905Z,2.40
2022-09-14T14:39:25.591Z,2.60
2022-09-14T14:41:52.753Z,2.77
2022-09-14T14:44:25.146Z,2.30
2022-09-14T14:46:52.004Z,1.80
2022-09-14T14:49:20.805Z,2.20
2022-09-14T14:51:48.020Z,2.40
2022-09-14T14:54:18.471Z,2.73
2022-09-14T14:56:49.928Z,3.73
2022-09-14T14:59:19.597Z,2.10
2022-09-14T15:01:46.987Z,3.20
2022-09-14T15:04:13.685Z,4.50
2022-09-14T15:06:40.361Z,3.40
2022-09-14T15:09:13.495Z,3.60
2022-09-14T15:11:43.052Z,3.57
2022-09-14T15:14:15.767Z,3.33
2022-09-14T15:16:43.300Z,4.33
2022-09-14T15:19:10.759Z,5.87
2022-09-14T15:21:38.788Z,3.13
2022-09-14T15:24:05.899Z,4.30
2022-09-14T15:26:33.294Z,4.93
2022-09-14T15:29:00.364Z,4.57
2022-09-14T15:31:27.040Z,4.37
2022-09-14T15:33:53.850Z,4.93
2022-09-14T15:36:36.595Z,5.00
2022-09-14T15:39:04.946Z,5.40
2022-09-14T15:41:31.632Z,5.23
2022-09-14T15:43:58.880Z,5.83
2022-09-14T15:46:25.527Z,5.60
2022-09-14T15:48:52.113Z,6.37
2022-09-14T15:51:19.533Z,6.13
2022-09-14T15:53:47.605Z,5.97
2022-09-14T15:56:16.241Z,6.27
2022-09-14T15:58:47.813Z,6.03
2022-09-14T16:01:16.897Z,5.10
2022-09-14T16:03:43.959Z,4.47
2022-09-14T16:06:12.084Z,4.83
2022-09-14T16:08:39.666Z,4.43
2022-09-14T16:11:07.541Z,4.27
2022-09-14T16:13:35.128Z,4.50
2022-09-14T16:16:10.448Z,6.87
2022-09-14T16:18:37.642Z,4.30
2022-09-14T16:21:08.332Z,4.53
2022-09-14T16:23:37.696Z,5.67
2022-09-14T16:26:13.572Z,4.83
2022-09-14T16:28:41.884Z,4.97
2022-09-14T16:31:11.704Z,5.23
2022-09-14T16:33:40.658Z,4.70
2022-09-14T16:36:11.313Z,5.40
2022-09-14T16:38:38.386Z,4.97
2022-09-14T16:41:05.840Z,4.70
2022-09-14T16:43:33.578Z,5.00
2022-09-14T16:46:20.451Z,6.67
2022-09-14T16:48:49.988Z,5.00
2022-09-14T16:51:19.804Z,5.13
2022-09-14T16:53:47.900Z,5.33
2022-09-14T16:56:26.347Z,5.93
2022-09-14T16:58:54.531Z,6.43
2022-09-14T17:01:24.588Z,6.23
2022-09-14T17:03:52.868Z,6.23
2022-09-14T17:06:22.193Z,6.70
2022-09-14T17:08:49.257Z,7.70
2022-09-14T17:11:16.941Z,6.47
2022-09-14T17:13:44.699Z,7.13
2022-09-14T17:16:17.904Z,7.20
2022-09-14T17:18:48.532Z,7.30
2022-09-14T17:21:18.443Z,7.23
2022-09-14T17:23:45.636Z,7.90
2022-09-14T17:26:14.338Z,7.77
2022-09-14T17:28:44.409Z,8.53
2022-09-14T17:31:12.948Z,8.67
2022-09-14T17:33:39.704Z,9.07
2022-09-14T17:36:07.248Z,10.10
2022-09-14T17:38:36.760Z,14.23
2022-09-14T17:41:08.574Z,10.70
2022-09-14T17:43:36.676Z,10.90
2022-09-14T17:46:05.393Z,12.50
2022-09-14T17:48:34.400Z,12.73
2022-09-14T17:51:17.267Z,13.83
2022-09-14T17:53:45.260Z,11.73
2022-09-14T17:56:14.491Z,13.20
2022-09-14T17:58:42.098Z,12.67
2022-09-14T18:01:14.898Z,16.07
2022-09-14T18:03:43.369Z,11.20
2022-09-14T18:06:12.436Z,14.60
2022-09-14T18:08:39.805Z,13.27
2022-09-14T18:11:09.561Z,13.00
2022-09-14T18:13:41.046Z,14.80
2022-09-14T18:16:07.971Z,13.87
2022-09-14T18:18:34.806Z,15.30
2022-09-14T18:21:01.775Z,16.20
2022-09-14T18:23:28.639Z,16.80
2022-09-14T18:25:55.353Z,17.70
2022-09-14T18:28:22.759Z,16.23
2022-09-14T18:30:50.073Z,16.70
2022-09-14T18:33:17.100Z,17.60
2022-09-14T18:35:43.693Z,17.90
2022-09-14T18:38:11.758Z,16.70
2022-09-14T18:40:38.690Z,16.80
2022-09-14T18:43:05.346Z,16.47
2022-09-14T18:45:34.053Z,16.13
2022-09-14T18:48:00.705Z,17.43
2022-09-14T18:50:27.311Z,17.30
2022-09-14T18:52:54.118Z,18.67
2022-09-14T18:55:23.461Z,18.00
2022-09-14T18:57:50.197Z,18.93
2022-09-14T19:00:18.917Z,17.13
2022-09-14T19:02:55.081Z,18.13
2022-09-14T19:05:23.244Z,22.87
2022-09-14T19:07:49.876Z,20.57
2022-09-14T19:10:16.869Z,17.90
2022-09-14T19:12:43.873Z,18.63
2022-09-14T19:15:11.375Z,20.07
2022-09-14T19:17:38.583Z,21.30
2022-09-14T19:20:06.824Z,18.27
2022-09-14T19:22:33.983Z,18.90
2022-09-14T19:25:00.589Z,17.17
2022-09-14T19:27:27.360Z,16.87
2022-09-14T19:29:53.966Z,16.33
2022-09-14T19:32:20.540Z,15.87
2022-09-14T19:34:47.168Z,16.67
2022-09-14T19:37:13.728Z,21.30
2022-09-14T19:39:42.121Z,19.53
2022-09-14T19:42:08.971Z,20.87
2022-09-14T19:44:35.630Z,20.07
2022-09-14T19:47:02.212Z,17.07
2022-09-14T19:49:28.884Z,15.37
2022-09-14T19:51:56.430Z,16.80
2022-09-14T19:54:23.228Z,17.10
2022-09-14T19:56:50.185Z,15.43
2022-09-14T19:59:16.873Z,13.80
2022-09-14T20:01:44.449Z,15.50
2022-09-14T20:04:12.244Z,15.10
2022-09-14T20:06:42.495Z,14.80
2022-09-14T20:09:12.235Z,15.47
2022-09-14T20:11:40.592Z,20.53
2022-09-14T20:14:10.673Z,14.97
2022-09-14T20:16:40.143Z,18.27
2022-09-14T20:19:10.237Z,19.10
2022-09-14T20:21:37.512Z,18.50
2022-09-14T20:24:21.703Z,21.17
2022-09-14T20:26:50.301Z,19.30
2022-09-14T20:29:18.605Z,20.50
2022-09-14T20:31:46.134Z,21.80
2022-09-14T20:34:14.085Z,17.67
2022-09-14T20:36:41.180Z,21.07
2022-09-14T20:39:07.817Z,16.27
2022-09-14T20:41:35.609Z,17.60
2022-09-14T20:44:03.421Z,19.23
2022-09-14T20:46:36.086Z,18.50
2022-09-14T20:49:04.873Z,22.33
2022-09-14T20:51:31.737Z,21.67
2022-09-14T20:53:58.350Z,17.87
2022-09-14T20:56:28.641Z,19.33
2022-09-14T20:58:57.864Z,19.37
2022-09-14T21:01:27.093Z,22.90
2022-09-14T21:03:54.512Z,23.00
2022-09-14T21:06:26.224Z,25.67
2022-09-14T21:08:53.277Z,33.70
2022-09-14T21:11:23.573Z,28.67
2022-09-14T21:13:51.829Z,26.50
2022-09-14T21:16:23.037Z,30.93
2022-09-14T21:19:01.081Z,30.30
2022-09-14T21:21:28.691Z,33.03
2022-09-14T21:23:57.014Z,31.40
2022-09-14T21:26:25.465Z,35.13
2022-09-14T21:28:59.461Z,30.90
2022-09-14T21:31:29.606Z,28.83
2022-09-14T21:34:04.577Z,28.80
2022-09-14T21:36:37.585Z,30.60
2022-09-14T21:39:10.804Z,32.27
2022-09-14T21:41:39.021Z,30.97
2022-09-14T21:44:05.991Z,29.40
2022-09-14T21:46:33.006Z,32.53
2022-09-14T21:49:00.137Z,34.03
2022-09-14T21:51:32.641Z,32.00
2022-09-14T21:54:05.300Z,33.97
2022-09-14T21:56:34.633Z,33.87
2022-09-14T21:59:03.705Z,36.47
2022-09-14T22:01:30.606Z,32.63
2022-09-14T22:03:58.125Z,34.57
2022-09-14T22:06:28.132Z,33.07
2022-09-14T22:08:57.389Z,37.00
2022-09-14T22:11:31.283Z,30.80
2022-09-14T22:14:10.779Z,34.20
2022-09-14T22:16:38.428Z,30.43
2022-09-14T22:19:21.757Z,33.43
2022-09-14T22:21:49.404Z,30.53
2022-09-14T22:24:22.152Z,33.17
2022-09-14T22:26:50.212Z,38.47
2022-09-14T22:29:18.445Z,34.47
2022-09-14T22:31:46.056Z,39.30
2022-09-14T22:34:13.536Z,39.37
2022-09-14T22:36:40.456Z,35.97
2022-09-14T22:39:08.144Z,33.73
2022-09-14T22:41:35.079Z,34.80
2022-09-14T22:44:03.520Z,36.07
2022-09-14T22:46:30.526Z,37.23
2022-09-14T22:48:57.252Z,39.90
2022-09-14T22:51:26.244Z,36.70
2022-09-14T22:53:53.221Z,33.30
2022-09-14T22:56:29.481Z,40.07
2022-09-14T22:58:56.997Z,34.60
2022-09-14T23:01:27.972Z,33.53
2022-09-14T23:04:04.562Z,35.60
2022-09-14T23:06:33.810Z,36.03
2022-09-14T23:09:01.092Z,32.97
2022-09-14T23:11:28.305Z,32.07
2022-09-14T23:13:55.086Z,29.43
2022-09-14T23:16:26.054Z,33.90
2022-09-14T23:18:55.386Z,34.57
2022-09-14T23:21:22.380Z,31.87
2022-09-14T23:23:58.351Z,38.63
2022-09-14T23:26:25.651Z,32.00
2022-09-14T23:29:01.648Z,36.73
2022-09-14T23:31:29.839Z,30.73
2022-09-14T23:33:57.836Z,37.90
2022-09-14T23:36:24.750Z,33.60
2022-09-14T23:38:51.825Z,43.50
2022-09-14T23:41:20.737Z,35.30
2022-09-14T23:43:47.636Z,32.93
2022-09-14T23:46:14.536Z,31.00
2022-09-14T23:48:41.386Z,31.40
2022-09-14T23:51:09.996Z,31.20
2022-09-14T23:53:37.604Z,26.70
2022-09-14T23:56:04.861Z,31.40
2022-09-14T23:58:31.884Z,30.03
